Time;durP1;ratioP1;P1;durP2;ratioP2;P2;SDS_P1;SDS_P2;PMS_P1;PMS_P2;Temp;Humidity;BMP_temperature;BMP_pressure;BME280_temperature;BME280_humidity;BME280_pressure;Samples;Min_cycle;Max_cycle;Signal;HPM_P1;HPM_P2
2022/01/30 00:01:19;;;;;;;1.65;1.05;;;;;;;17.17;58.32;99599.88;3142583;28;20059;-73
2022/01/30 00:02:51;;;;;;;1.15;0.82;;;;;;;17.15;58.29;99590.31;3146935;28;20060;-73
2022/01/30 00:04:24;;;;;;;1.45;0.90;;;;;;;17.15;58.42;99595.69;3144245;28;20147;-74
2022/01/30 00:05:56;;;;;;;1.40;1.13;;;;;;;17.15;58.39;99590.31;3146941;28;20056;-73
2022/01/30 00:07:28;;;;;;;;;;;;;;;17.13;58.40;99590.50;3145322;28;20516;-74
2022/01/30 00:08:59;;;;;;;1.15;1.00;;;;;;;17.11;58.44;99589.81;3147031;28;19931;-73
2022/01/30 00:10:37;;;;;;;3.45;1.20;;;;;;;17.10;58.38;99587.31;3144138;28;20555;-73
2022/01/30 00:12:10;;;;;;;1.85;0.82;;;;;;;17.08;58.31;99587.50;3144975;28;20073;-73
2022/01/30 00:13:42;;;;;;;3.00;1.00;;;;;;;17.10;58.43;99582.78;3146726;28;20048;-73
2022/01/30 00:15:14;;;;;;;1.00;0.90;;;;;;;17.07;58.33;99575.06;3144870;28;20044;-73
2022/01/30 00:16:54;;;;;;;1.60;0.88;;;;;;;17.06;58.48;99573.41;3147487;28;20054;-73
2022/01/30 00:18:43;;;;;;;1.40;0.95;;;;;;;17.04;58.36;99570.06;3144797;28;20075;-73
2022/01/30 00:20:20;;;;;;;1.20;1.05;;;;;;;17.03;58.34;99573.75;3143579;28;20055;-73
2022/01/30 00:22:02;;;;;;;2.22;0.90;;;;;;;17.02;58.47;99566.75;3148179;28;20076;-73
2022/01/30 00:23:37;;;;;;;3.13;1.33;;;;;;;17.00;58.50;99571.44;3145455;28;20051;-74
2022/01/30 00:25:14;;;;;;;2.97;1.27;;;;;;;16.98;58.48;99565.38;3144475;28;20052;-74
2022/01/30 00:26:47;;;;;;;4.50;1.10;;;;;;;16.98;58.44;99570.75;3147027;28;20422;-73
2022/01/30 00:28:21;;;;;;;2.33;1.40;;;;;;;16.96;58.39;99560.19;3143761;28;20727;-73
2022/01/30 00:29:53;;;;;;;1.42;0.80;;;;;;;16.96;58.49;99565.53;3145106;28;20500;-73
2022/01/30 00:31:27;;;;;;;2.03;1.20;;;;;;;16.95;58.52;99566.56;3143857;28;20129;-73
2022/01/30 00:32:59;;;;;;;1.08;0.73;;;;;;;16.93;58.38;99559.69;3146433;28;20044;-73
2022/01/30 00:34:31;;;;;;;0.85;0.85;;;;;;;16.92;58.56;99569.59;3145187;28;20642;-74
2022/01/30 00:36:05;;;;;;;1.75;1.08;;;;;;;16.90;58.54;99560.88;3145238;28;20690;-73
2022/01/30 00:37:40;;;;;;;2.78;1.27;;;;;;;16.90;58.55;99563.56;3145531;28;20043;-73
2022/01/30 00:39:12;;;;;;;1.00;0.80;;;;;;;16.88;58.49;99560.22;3141994;28;20050;-74
2022/01/30 00:40:45;;;;;;;0.70;0.70;;;;;;;16.87;58.67;99560.38;3145601;28;20393;-73
2022/01/30 00:42:17;;;;;;;2.50;0.82;;;;;;;16.88;58.49;99562.03;3142066;28;20131;-73
2022/01/30 00:43:49;;;;;;;1.77;0.93;;;;;;;16.86;58.59;99539.97;3143598;28;20048;-73
2022/01/30 00:45:21;;;;;;;1.17;0.80;;;;;;;16.85;58.59;99536.44;3142137;28;23015;-73
2022/01/30 00:46:54;;;;;;;1.75;0.68;;;;;;;16.84;58.66;99523.22;3145346;28;20110;-73
2022/01/30 00:48:26;;;;;;;0.57;0.57;;;;;;;16.82;58.60;99509.16;3148613;28;20059;-73
2022/01/30 00:49:57;;;;;;;1.15;0.82;;;;;;;16.81;58.64;99502.13;3149579;28;20048;-74
2022/01/30 00:51:31;;;;;;;1.92;0.90;;;;;;;16.80;58.56;99501.28;3147189;28;20055;-73
2022/01/30 00:53:03;;;;;;;0.80;0.73;;;;;;;16.79;58.68;99509.50;3147170;28;20048;-73
2022/01/30 00:54:35;;;;;;;0.93;0.82;;;;;;;16.77;58.62;99512.34;3149016;28;20040;-74
2022/01/30 00:56:08;;;;;;;2.00;0.90;;;;;;;16.73;58.67;99514.47;3146162;28;20089;-73
2022/01/30 00:57:39;;;;;;;1.17;1.02;;;;;;;16.73;58.67;99517.16;3144712;28;20055;-74
2022/01/30 00:59:11;;;;;;;1.63;0.93;;;;;;;16.73;58.67;99524.38;3145694;28;20533;-73
2022/01/30 01:00:43;;;;;;;2.10;1.63;;;;;;;16.72;58.70;99515.50;3148120;28;20051;-73
2022/01/30 01:02:17;;;;;;;1.15;1.00;;;;;;;16.71;58.65;99521.00;3146458;28;21137;-74
2022/01/30 01:03:48;;;;;;;2.63;1.13;;;;;;;16.70;58.61;99522.88;3147261;28;20052;-73
2022/01/30 01:05:20;;;;;;;2.00;1.23;;;;;;;16.68;58.63;99513.31;3146708;28;20094;-74
2022/01/30 01:06:54;;;;;;;1.23;0.88;;;;;;;16.68;58.73;99514.16;3148121;28;20047;-74
2022/01/30 01:08:32;;;;;;;0.90;0.73;;;;;;;16.65;58.69;99514.50;3148842;28;20075;-73
2022/01/30 01:10:09;;;;;;;1.65;1.02;;;;;;;16.64;58.78;99502.13;3149631;28;20070;-73
2022/01/30 01:12:12;;;;;;;1.73;1.13;;;;;;;16.63;58.73;99500.47;3145690;28;20055;-73
2022/01/30 01:14:04;;;;;;;1.42;0.98;;;;;;;16.63;58.65;99488.88;3144381;28;20610;-74
2022/01/30 01:24:44;;;;;;;1.40;1.30;;;;;;;16.54;58.79;99482.72;3147110;28;20036;-73
2022/01/30 01:26:16;;;;;;;1.33;0.82;;;;;;;16.53;58.81;99483.72;3145117;28;21033;-73
2022/01/30 01:27:48;;;;;;;1.23;1.13;;;;;;;16.52;58.87;99490.09;3141520;28;20110;-73
2022/01/30 01:29:20;;;;;;;1.55;1.05;;;;;;;16.51;58.85;99481.19;3141865;28;20048;-74
2022/01/30 01:30:52;;;;;;;1.00;0.88;;;;;;;16.49;58.96;99491.28;3147233;28;20628;-73
2022/01/30 01:32:24;;;;;;;0.73;0.43;;;;;;;16.48;58.78;99488.75;3148994;28;20041;-74
2022/01/30 01:34:10;;;;;;;1.27;1.10;;;;;;;16.47;58.84;99495.13;3147077;28;20052;-74
2022/01/30 01:35:41;;;;;;;1.52;1.10;;;;;;;16.47;58.76;99492.44;3145901;28;20567;-73
2022/01/30 01:37:13;;;;;;;1.05;0.80;;;;;;;16.46;58.70;99493.44;3145409;28;20044;-74
2022/01/30 01:38:46;;;;;;;1.95;1.25;;;;;;;16.44;58.70;99485.56;3150044;28;20114;-73
2022/01/30 01:40:18;;;;;;;1.65;0.80;;;;;;;16.45;58.76;99486.41;3147683;28;20040;-73
2022/01/30 01:41:50;;;;;;;1.05;0.65;;;;;;;16.42;58.77;99482.22;3148716;28;20051;-73
2022/01/30 01:43:24;;;;;;;0.93;0.75;;;;;;;16.41;59.00;99485.06;3147542;28;21110;-74
2022/01/30 01:44:58;;;;;;;0.93;0.80;;;;;;;16.41;58.88;99485.91;3141341;28;20047;-74
2022/01/30 01:46:34;;;;;;;0.85;0.70;;;;;;;16.40;58.82;99472.69;3145802;28;20078;-74
2022/01/30 01:48:11;;;;;;;1.05;0.93;;;;;;;16.39;58.79;99479.88;3146964;28;21549;-74
2022/01/30 01:49:43;;;;;;;2.33;1.08;;;;;;;16.38;58.84;99477.38;3147069;28;20036;-73
2022/01/30 01:51:19;;;;;;;1.23;0.60;;;;;;;16.36;58.99;99472.19;3146993;28;20060;-73
2022/01/30 01:52:51;;;;;;;1.23;0.98;;;;;;;16.36;58.80;99461.47;3147534;28;20048;-73
2022/01/30 01:54:24;;;;;;;0.70;0.60;;;;;;;16.35;58.83;99456.28;3149020;28;20110;-73
2022/01/30 01:55:56;;;;;;;0.88;0.82;;;;;;;16.34;58.83;99457.31;3149864;28;20044;-73
2022/01/30 01:57:28;;;;;;;0.55;0.52;;;;;;;16.33;58.88;99464.50;3146162;28;20048;-73
2022/01/30 01:59:00;;;;;;;2.67;0.85;;;;;;;16.30;58.97;99454.97;3145819;28;20741;-73
2022/01/30 02:00:32;;;;;;;1.95;0.75;;;;;;;16.30;58.96;99462.16;3142865;28;20048;-73
2022/01/30 02:02:04;;;;;;;1.25;1.02;;;;;;;16.29;58.93;99458.63;3143341;28;20059;-73
2022/01/30 02:03:37;;;;;;;0.75;0.73;;;;;;;16.29;59.02;99449.75;3148146;28;20044;-73
2022/01/30 02:05:10;;;;;;;1.27;0.57;;;;;;;16.27;58.95;99452.63;3147050;28;20578;-73
2022/01/30 02:06:42;;;;;;;1.00;0.80;;;;;;;16.26;58.89;99453.63;3141099;28;20393;-74
2022/01/30 02:10:06;;;;;;;1.10;0.70;;;;;;;16.25;58.84;99445.78;3139321;28;20044;-73
2022/01/30 02:11:41;;;;;;;2.10;0.80;;;;;;;16.24;59.00;99441.41;3145305;28;20625;-73
2022/01/30 02:13:48;;;;;;;0.73;0.73;;;;;;;16.23;59.11;99442.41;3144809;28;20062;-74
2022/01/30 02:15:46;;;;;;;1.60;1.17;;;;;;;16.20;59.02;99440.91;3146893;28;20135;-73
2022/01/30 02:24:59;;;;;;;0.77;0.60;;;;;;;16.13;59.02;99429.22;3132542;28;20599;-73
2022/01/30 02:26:36;;;;;;;0.70;0.60;;;;;;;16.13;59.23;99425.69;3145389;28;20047;-73
2022/01/30 02:28:12;;;;;;;0.80;0.63;;;;;;;16.13;58.97;99417.66;3146968;28;20096;-74
2022/01/30 02:29:44;;;;;;;0.77;0.60;;;;;;;16.12;59.03;99411.47;3148316;28;20428;-73
2022/01/30 02:31:20;;;;;;;0.98;0.70;;;;;;;16.08;59.00;99408.31;3144246;28;20048;-73
2022/01/30 02:32:54;;;;;;;1.13;0.57;;;;;;;16.09;59.18;99411.81;3149086;28;20131;-74
2022/01/30 02:34:27;;;;;;;1.25;1.15;;;;;;;16.08;59.00;99416.34;3147155;28;20789;-73
2022/01/30 02:35:59;;;;;;;1.10;0.80;;;;;;;16.07;59.20;99409.31;3143983;28;20052;-74
2022/01/30 02:37:31;;;;;;;1.42;0.63;;;;;;;16.06;59.11;99404.94;3146133;28;20516;-73
2022/01/30 02:39:04;;;;;;;0.93;0.65;;;;;;;16.05;59.01;99394.44;3148379;28;20048;-73
2022/01/30 02:40:40;;;;;;;0.70;0.70;;;;;;;16.03;59.20;99396.44;3145898;28;20540;-73
2022/01/30 02:42:17;;;;;;;1.45;0.90;;;;;;;16.03;59.06;99385.72;3144326;28;20052;-73
2022/01/30 02:44:04;;;;;;;1.20;0.73;;;;;;;16.02;59.22;99389.41;3148077;28;20478;-73
2022/01/30 02:45:39;;;;;;;1.17;1.05;;;;;;;16.01;59.26;99366.31;3147072;28;21052;-73
2022/01/30 02:47:23;;;;;;;2.35;0.98;;;;;;;15.98;59.10;99378.19;3146861;28;20048;-73
2022/01/30 02:48:58;;;;;;;0.90;0.55;;;;;;;15.98;59.16;99377.38;3150039;28;20043;-73
2022/01/30 02:50:36;;;;;;;0.75;0.45;;;;;;;15.97;59.20;99373.88;3146547;28;20143;-73
2022/01/30 02:52:10;;;;;;;0.95;0.88;;;;;;;15.96;59.33;99379.38;3145239;28;20657;-73
2022/01/30 02:53:46;;;;;;;0.70;0.70;;;;;;;15.96;59.23;99376.69;3149809;28;20039;-73
2022/01/30 02:55:19;;;;;;;1.38;1.02;;;;;;;15.94;59.15;99381.41;3145071;28;20110;-74
2022/01/30 02:56:50;;;;;;;1.05;0.70;;;;;;;15.94;59.06;99376.06;3147537;28;20036;-74
2022/01/30 02:58:22;;;;;;;1.57;1.00;;;;;;;15.94;59.26;99368.03;3145876;28;20075;-74
2022/01/30 02:59:53;;;;;;;1.38;0.50;;;;;;;15.92;59.36;99367.34;3146340;28;20047;-73
2022/01/30 03:01:25;;;;;;;0.47;0.45;;;;;;;15.91;59.18;99365.66;3146356;28;20133;-73
2022/01/30 03:02:57;;;;;;;0.80;0.60;;;;;;;15.92;59.15;99362.00;3148727;28;20052;-73
2022/01/30 03:04:29;;;;;;;;;;;;;;;15.90;59.29;99369.34;3146808;28;20556;-74
2022/01/30 03:06:00;;;;;;;0.85;0.75;;;;;;;15.88;59.22;99374.03;3143483;28;19959;-73
2022/01/30 03:07:32;;;;;;;1.43;0.50;;;;;;;15.88;59.35;99371.34;3147224;28;20079;-73
2022/01/30 03:09:05;;;;;;;0.95;0.60;;;;;;;15.88;59.22;99376.69;3142695;28;20110;-73
2022/01/30 03:10:38;;;;;;;1.77;0.90;;;;;;;15.84;59.37;99379.72;3147871;28;20158;-73
2022/01/30 03:12:11;;;;;;;1.25;0.70;;;;;;;15.84;59.27;99374.34;3147168;28;20048;-73
2022/01/30 03:13:42;;;;;;;1.25;0.82;;;;;;;15.84;59.29;99365.50;3148422;28;20062;-73
2022/01/30 03:15:14;;;;;;;0.80;0.55;;;;;;;15.81;59.39;99364.00;3147252;28;20101;-74
2022/01/30 03:16:46;;;;;;;0.82;0.82;;;;;;;15.80;59.29;99365.00;3146757;28;20044;-73
2022/01/30 03:18:18;;;;;;;0.90;0.75;;;;;;;15.81;59.31;99368.53;3143934;28;20052;-73
2022/01/30 03:19:49;;;;;;;;;;;;;;;15.80;59.31;99364.19;3147922;28;20040;-73
2022/01/30 03:21:21;;;;;;;0.90;0.90;;;;;;;15.79;59.24;99359.81;3139033;28;19981;-73
2022/01/30 03:22:53;;;;;;;0.85;0.85;;;;;;;15.78;59.29;99367.00;3148174;28;20052;-73
2022/01/30 03:24:25;;;;;;;0.55;0.50;;;;;;;15.76;59.30;99366.34;3145572;28;20574;-73
2022/01/30 03:25:59;;;;;;;0.98;0.73;;;;;;;15.76;59.44;99366.34;3148623;28;20090;-73
2022/01/30 03:27:31;;;;;;;0.70;0.60;;;;;;;15.75;59.38;99364.66;3146226;28;20056;-74
2022/01/30 03:29:05;;;;;;;1.20;0.93;;;;;;;15.73;59.25;99358.66;3145457;28;20060;-73
2022/01/30 03:30:38;;;;;;;0.98;0.75;;;;;;;15.72;59.39;99357.00;3144560;28;20104;-73
2022/01/30 03:32:10;;;;;;;1.15;0.65;;;;;;;15.71;59.46;99358.00;3147549;28;20431;-73
2022/01/30 03:33:41;;;;;;;0.98;0.82;;;;;;;15.71;59.49;99358.00;3147405;28;20419;-73
2022/01/30 03:35:12;;;;;;;0.83;0.67;;;;;;;15.70;59.37;99348.28;3147107;28;20044;-73
2022/01/30 03:36:44;;;;;;;0.50;0.50;;;;;;;15.70;59.47;99350.97;3149517;28;20048;-73
2022/01/30 03:38:16;;;;;;;0.70;0.65;;;;;;;15.68;59.31;99350.28;3140150;28;20067;-73
2022/01/30 03:39:48;;;;;;;0.70;0.70;;;;;;;15.68;59.56;99347.63;3147743;28;20043;-73
2022/01/30 03:41:21;;;;;;;;;;;;;;;15.67;59.44;99351.28;3145710;28;20076;-73
2022/01/30 03:42:53;;;;;;;1.17;1.08;;;;;;;15.67;59.31;99353.94;3145207;28;19924;-73
2022/01/30 03:44:25;;;;;;;0.63;0.50;;;;;;;15.65;59.62;99348.75;3145817;28;20602;-73
2022/01/30 03:45:56;;;;;;;1.30;0.77;;;;;;;15.65;59.35;99348.75;3145268;28;20243;-73
2022/01/30 03:47:28;;;;;;;1.38;0.80;;;;;;;15.64;59.49;99348.94;3143548;28;20044;-73
2022/01/30 03:49:00;;;;;;;1.73;0.65;;;;;;;15.63;59.53;99349.94;3145383;28;20082;-74
2022/01/30 03:50:31;;;;;;;;;;;;;;;15.61;59.46;99349.25;3144297;28;20048;-74
2022/01/30 03:52:04;;;;;;;0.90;0.63;;;;;;;15.60;59.55;99350.25;3145556;28;19959;-73
2022/01/30 03:53:35;;;;;;;1.08;0.98;;;;;;;15.59;59.59;99345.91;3143762;28;20040;-73
2022/01/30 03:55:08;;;;;;;0.88;0.68;;;;;;;15.58;59.55;99339.75;3136166;28;20055;-73
2022/01/30 03:56:42;;;;;;;0.60;0.60;;;;;;;15.58;59.55;99333.56;3145876;28;21088;-73
2022/01/30 03:58:14;;;;;;;1.00;0.88;;;;;;;15.57;59.55;99337.22;3143515;28;20055;-73
2022/01/30 03:59:46;;;;;;;0.60;0.60;;;;;;;15.56;59.58;99338.22;3146436;28;20040;-73
2022/01/30 04:01:17;;;;;;;;;;;;;;;15.56;59.57;99332.88;3145009;28;20051;-73
2022/01/30 04:02:50;;;;;;;2.05;1.00;;;;;;;15.55;59.72;99333.91;3144419;28;19924;-73
2022/01/30 04:04:22;;;;;;;0.65;0.50;;;;;;;15.53;59.65;99330.53;3146453;28;20051;-73
2022/01/30 04:05:54;;;;;;;;;;;;;;;15.54;59.64;99335.72;3148124;28;20056;-73
2022/01/30 04:07:26;;;;;;;;;;;;;;;15.54;59.64;99335.72;3145075;28;19928;-74
2022/01/30 04:08:59;;;;;;;1.00;0.52;;;;;;;15.53;59.55;99335.88;3146100;28;19920;-73
2022/01/30 04:10:31;;;;;;;1.30;0.82;;;;;;;15.51;59.59;99324.53;3143353;28;20127;-73
2022/01/30 04:12:06;;;;;;;1.60;0.57;;;;;;;15.53;59.59;99330.53;3144992;28;20044;-73
2022/01/30 04:13:38;;;;;;;0.70;0.55;;;;;;;15.52;59.68;99323.53;3143113;28;20419;-73
2022/01/30 04:15:11;;;;;;;0.73;0.63;;;;;;;15.51;59.62;99319.16;3142762;28;20040;-73
2022/01/30 04:16:43;;;;;;;0.70;0.60;;;;;;;15.50;59.77;99314.84;3139925;28;21010;-73
2022/01/30 04:18:15;;;;;;;1.00;0.65;;;;;;;15.52;59.67;99318.19;3144941;28;20048;-74
2022/01/30 04:19:48;;;;;;;0.80;0.68;;;;;;;15.50;59.68;99321.00;3146924;28;20047;-73
2022/01/30 04:21:20;;;;;;;0.93;0.70;;;;;;;15.48;59.67;99317.66;3147028;28;20044;-73
2022/01/30 04:22:51;;;;;;;0.75;0.75;;;;;;;15.50;59.63;99321.00;3148225;28;20055;-73
2022/01/30 04:24:23;;;;;;;1.23;0.98;;;;;;;15.50;59.91;99321.00;3147947;28;20080;-73
2022/01/30 04:25:55;;;;;;;0.77;0.68;;;;;;;15.51;59.81;99319.16;3146780;28;20044;-73
2022/01/30 04:27:28;;;;;;;0.80;0.77;;;;;;;15.50;59.82;99317.50;3146734;28;20055;-73
2022/01/30 04:29:00;;;;;;;0.90;0.60;;;;;;;15.51;59.66;99320.00;3147767;28;20051;-73
2022/01/30 04:30:33;;;;;;;1.23;0.80;;;;;;;15.50;59.73;99314.84;3146766;28;20048;-73
2022/01/30 04:32:05;;;;;;;0.77;0.70;;;;;;;15.48;59.93;99306.97;3149581;28;20055;-73
2022/01/30 04:33:38;;;;;;;0.90;0.73;;;;;;;15.49;59.80;99307.81;3148889;28;20052;-74
2022/01/30 04:35:15;;;;;;;0.77;0.50;;;;;;;15.48;59.79;99312.31;3144288;28;20802;-73
2022/01/30 04:37:00;;;;;;;0.82;0.75;;;;;;;15.48;59.72;99304.31;3147861;28;20063;-73
2022/01/30 04:38:40;;;;;;;0.40;0.40;;;;;;;15.48;59.80;99315.00;3149379;28;20040;-74
2022/01/30 04:40:38;;;;;;;0.70;0.70;;;;;;;15.49;59.79;99300.66;3148428;28;20677;-73
2022/01/30 04:51:56;;;;;;;1.25;0.90;;;;;;;15.48;59.74;99306.16;3149475;28;20089;-73
2022/01/30 04:53:35;;;;;;;1.15;0.75;;;;;;;15.47;59.64;99307.16;3147246;28;20040;-73
2022/01/30 04:56:56;;;;;;;1.20;0.80;;;;;;;15.45;59.59;99293.13;3147434;28;20269;-73
2022/01/30 04:58:33;;;;;;;1.42;1.15;;;;;;;15.45;59.72;99285.09;3146770;28;20044;-74
2022/01/30 05:00:23;;;;;;;1.52;0.70;;;;;;;15.44;59.64;99275.41;3145379;28;20075;-73
2022/01/30 05:02:02;;;;;;;0.93;0.82;;;;;;;15.42;59.65;99286.25;3146854;28;20058;-73
2022/01/30 05:03:50;;;;;;;0.60;0.60;;;;;;;15.43;59.78;99287.91;3148038;28;20046;-73
2022/01/30 05:07:29;;;;;;;0.75;0.68;;;;;;;15.44;59.75;99288.78;3142836;28;20056;-73
2022/01/30 05:09:01;;;;;;;0.73;0.60;;;;;;;15.45;59.61;99290.44;3146557;28;20047;-74
2022/01/30 05:10:33;;;;;;;1.90;0.90;;;;;;;15.48;59.73;99277.56;3145986;28;20307;-73
2022/01/30 05:12:06;;;;;;;0.93;0.50;;;;;;;15.54;59.84;99279.56;3148179;28;20053;-73
2022/01/30 05:13:44;;;;;;;1.05;0.60;;;;;;;15.61;59.75;99282.41;3147991;28;20051;-74
2022/01/30 05:15:18;;;;;;;0.95;0.52;;;;;;;15.70;59.73;99284.09;3145763;28;20048;-74
2022/01/30 05:16:50;;;;;;;0.40;0.40;;;;;;;15.77;59.47;99282.44;3145792;28;20051;-74
2022/01/30 05:18:23;;;;;;;0.88;0.70;;;;;;;15.84;59.57;99283.41;3144741;28;20074;-73
2022/01/30 05:19:56;;;;;;;0.98;0.57;;;;;;;15.93;59.39;99286.06;3146011;28;20422;-73
2022/01/30 05:21:28;;;;;;;0.43;0.43;;;;;;;15.98;59.35;99295.25;3146498;28;20072;-73
2022/01/30 05:23:00;;;;;;;1.17;0.52;;;;;;;16.05;59.32;99296.25;3144678;28;20543;-73
2022/01/30 05:24:33;;;;;;;0.60;0.50;;;;;;;16.11;59.18;99294.75;3147268;28;20048;-73
2022/01/30 05:26:07;;;;;;;0.95;0.50;;;;;;;16.18;59.06;99285.00;3146779;28;20052;-73
2022/01/30 05:27:39;;;;;;;0.80;0.80;;;;;;;16.26;58.95;99284.97;3143882;28;20123;-73
2022/01/30 05:29:11;;;;;;;1.10;0.57;;;;;;;16.28;58.87;99282.97;3144165;28;20049;-73
2022/01/30 05:30:45;;;;;;;0.80;0.80;;;;;;;16.33;58.97;99278.97;3147104;28;20048;-73
2022/01/30 05:32:17;;;;;;;1.20;0.75;;;;;;;16.38;59.01;99276.56;3146198;28;20428;-74
2022/01/30 05:33:50;;;;;;;0.73;0.70;;;;;;;16.41;58.70;99277.06;3139126;28;20091;-73
2022/01/30 05:35:22;;;;;;;0.47;0.40;;;;;;;16.45;58.85;99282.91;3145308;28;20040;-73
2022/01/30 05:36:56;;;;;;;0.45;0.45;;;;;;;16.49;58.82;99274.38;3147215;28;20093;-73
2022/01/30 05:38:28;;;;;;;0.77;0.73;;;;;;;16.52;58.76;99275.88;3147778;28;20044;-73
2022/01/30 05:39:59;;;;;;;0.93;0.93;;;;;;;16.54;58.63;99271.16;3149990;28;20072;-73
2022/01/30 05:41:32;;;;;;;0.65;0.50;;;;;;;16.58;58.53;99271.66;3146699;28;20190;-73
2022/01/30 05:43:05;;;;;;;0.63;0.60;;;;;;;16.61;58.58;99261.41;3146397;28;20135;-73
2022/01/30 05:44:45;;;;;;;0.52;0.50;;;;;;;16.64;58.41;99260.22;3150926;28;20040;-73
2022/01/30 05:46:30;;;;;;;0.98;0.57;;;;;;;16.67;58.56;99255.34;3147677;28;20584;-73
2022/01/30 05:48:06;;;;;;;1.08;0.50;;;;;;;16.67;58.45;99255.34;3149607;28;20048;-73
2022/01/30 05:49:38;;;;;;;0.47;0.47;;;;;;;16.69;58.45;99261.38;3149112;28;20093;-73
2022/01/30 05:51:10;;;;;;;1.98;0.95;;;;;;;16.71;58.48;99262.00;3140151;28;20075;-73
2022/01/30 05:52:41;;;;;;;1.20;0.73;;;;;;;16.72;58.32;99274.41;3149292;28;20040;-73
2022/01/30 05:54:12;;;;;;;1.33;0.70;;;;;;;16.74;58.23;99272.41;3147647;28;20044;-73
2022/01/30 05:55:44;;;;;;;0.35;0.35;;;;;;;16.78;58.35;99275.59;3150977;28;20052;-73
2022/01/30 05:57:16;;;;;;;0.55;0.47;;;;;;;16.78;58.34;99274.75;3149705;28;20044;-73
2022/01/30 05:58:49;;;;;;;1.38;0.32;;;;;;;16.81;58.24;99271.72;3148326;28;20048;-73
2022/01/30 06:00:21;;;;;;;0.93;0.60;;;;;;;16.81;58.19;99261.84;3147901;28;20039;-73
2022/01/30 06:01:54;;;;;;;0.52;0.50;;;;;;;16.84;58.18;99266.00;3144418;28;20072;-73
2022/01/30 06:03:26;;;;;;;0.50;0.50;;;;;;;16.85;58.16;99265.81;3147842;28;20095;-73
2022/01/30 06:04:58;;;;;;;0.77;0.50;;;;;;;16.87;58.07;99268.34;3151120;28;20068;-73
2022/01/30 06:06:30;;;;;;;0.90;0.52;;;;;;;16.90;58.13;99273.34;3149112;28;20930;-73
2022/01/30 06:08:11;;;;;;;1.17;0.60;;;;;;;16.94;58.02;99269.31;3148299;28;20040;-73
2022/01/30 06:09:42;;;;;;;0.40;0.40;;;;;;;16.98;57.97;99271.44;3148497;28;20172;-73
2022/01/30 06:11:14;;;;;;;1.35;0.60;;;;;;;17.00;57.96;99271.28;3145539;28;20040;-74
2022/01/30 06:12:46;;;;;;;0.70;0.70;;;;;;;17.02;58.03;99266.56;3150249;28;20063;-73
2022/01/30 06:14:19;;;;;;;0.60;0.60;;;;;;;17.05;57.85;99254.63;3146982;28;20090;-74
2022/01/30 06:15:51;;;;;;;0.90;0.70;;;;;;;17.07;57.88;99264.16;3150026;28;20052;-74
2022/01/30 06:17:24;;;;;;;0.90;0.43;;;;;;;17.08;57.88;99255.13;3140471;28;20098;-73
2022/01/30 06:18:56;;;;;;;0.47;0.47;;;;;;;17.10;57.94;99257.63;3147518;28;20052;-73
2022/01/30 06:20:27;;;;;;;1.25;0.60;;;;;;;17.10;57.94;99260.31;3146319;28;20044;-73
2022/01/30 06:21:58;;;;;;;0.38;0.38;;;;;;;17.12;57.85;99259.13;3149029;28;20549;-73
2022/01/30 06:23:30;;;;;;;0.30;0.30;;;;;;;17.13;57.99;99255.44;3145952;28;20041;-74
2022/01/30 06:25:01;;;;;;;;;;;;;;;17.13;57.79;99254.59;3148138;28;20322;-74
2022/01/30 06:26:33;;;;;;;0.55;0.40;;;;;;;17.14;57.70;99251.75;3146843;28;19920;-73
2022/01/30 06:28:05;;;;;;;;;;;;;;;17.14;57.71;99249.06;3147480;28;20055;-73
2022/01/30 06:29:37;;;;;;;0.70;0.50;;;;;;;17.15;57.87;99248.03;3148703;28;19929;-74
2022/01/30 06:31:08;;;;;;;0.50;0.50;;;;;;;17.15;57.79;99253.41;3146312;28;20193;-73
2022/01/30 06:32:42;;;;;;;0.68;0.50;;;;;;;17.16;57.78;99249.72;3148713;28;20036;-73
2022/01/30 06:34:13;;;;;;;0.45;0.45;;;;;;;17.17;57.81;99251.38;3144705;28;20126;-73
2022/01/30 06:35:47;;;;;;;0.50;0.45;;;;;;;17.16;57.77;99248.84;3149110;28;20078;-74
2022/01/30 06:37:19;;;;;;;0.73;0.55;;;;;;;17.17;57.79;99254.06;3148062;28;20413;-73
2022/01/30 06:38:52;;;;;;;0.77;0.50;;;;;;;17.18;57.70;99254.88;3146885;28;20067;-74
2022/01/30 06:40:25;;;;;;;0.57;0.57;;;;;;;17.17;57.77;99259.41;3145127;28;20109;-74
2022/01/30 06:41:56;;;;;;;0.75;0.45;;;;;;;17.18;57.68;99260.25;3146184;28;20040;-73
2022/01/30 06:43:28;;;;;;;0.40;0.40;;;;;;;17.17;57.68;99251.38;3142745;28;20090;-73
2022/01/30 06:45:00;;;;;;;1.13;1.02;;;;;;;17.17;57.64;99254.06;3147408;28;20052;-73
2022/01/30 06:46:31;;;;;;;1.40;0.60;;;;;;;17.19;57.72;99259.25;3146853;28;20509;-73
2022/01/30 06:48:06;;;;;;;0.63;0.55;;;;;;;17.16;57.75;99260.44;3146505;28;20052;-73
2022/01/30 06:49:38;;;;;;;0.38;0.32;;;;;;;17.15;57.65;99264.13;3145222;28;20063;-73
2022/01/30 06:51:09;;;;;;;0.50;0.40;;;;;;;17.16;57.72;99262.25;3145446;28;20554;-74
2022/01/30 06:52:42;;;;;;;0.60;0.57;;;;;;;17.17;57.62;99261.28;3145503;28;20105;-73
2022/01/30 06:54:13;;;;;;;0.63;0.50;;;;;;;17.16;57.63;99260.44;3145272;28;20568;-73
2022/01/30 06:55:45;;;;;;;0.93;0.60;;;;;;;17.14;57.59;99257.09;3146919;28;20101;-73
2022/01/30 06:57:17;;;;;;;0.60;0.47;;;;;;;17.15;57.57;99269.47;3148036;28;20504;-74
2022/01/30 06:58:48;;;;;;;0.73;0.30;;;;;;;17.13;57.65;99260.81;3145530;28;20420;-74
2022/01/30 07:00:20;;;;;;;1.00;0.50;;;;;;;17.15;57.60;99263.28;3144080;28;20044;-74
2022/01/30 07:01:52;;;;;;;0.57;0.50;;;;;;;17.13;57.55;99255.44;3146383;28;20792;-73
2022/01/30 07:03:26;;;;;;;0.40;0.40;;;;;;;17.13;57.72;99263.47;3144751;28;20044;-73
2022/01/30 07:04:57;;;;;;;0.43;0.40;;;;;;;17.10;57.71;99255.78;3147358;28;20048;-73
2022/01/30 07:06:30;;;;;;;0.40;0.40;;;;;;;17.10;57.57;99250.41;3145249;28;20066;-73
2022/01/30 07:08:02;;;;;;;0.30;0.30;;;;;;;17.10;57.54;99253.09;3146571;28;20052;-73
2022/01/30 07:09:34;;;;;;;0.50;0.40;;;;;;;17.10;57.60;99257.63;3145888;28;20044;-73
2022/01/30 07:11:06;;;;;;;1.13;0.60;;;;;;;17.10;57.55;99265.66;3144161;28;20429;-73
2022/01/30 07:12:38;;;;;;;0.68;0.45;;;;;;;17.08;57.65;99257.81;3144516;28;20436;-73
2022/01/30 07:14:09;;;;;;;0.43;0.40;;;;;;;17.07;57.69;99256.13;3145859;28;20040;-73
2022/01/30 07:15:41;;;;;;;0.70;0.60;;;;;;;17.08;57.58;99257.00;3146382;28;20044;-74
2022/01/30 07:17:13;;;;;;;0.60;0.40;;;;;;;17.07;57.69;99258.81;3149815;28;20076;-73
2022/01/30 07:18:46;;;;;;;0.82;0.68;;;;;;;17.06;57.60;99265.19;3150297;28;20043;-73
2022/01/30 07:20:19;;;;;;;0.70;0.30;;;;;;;17.06;57.62;99261.69;3149651;28;20441;-73
2022/01/30 07:21:50;;;;;;;1.05;0.95;;;;;;;17.06;57.75;99265.19;3151193;28;20464;-73
2022/01/30 07:23:22;;;;;;;0.43;0.43;;;;;;;17.06;57.61;99259.00;3150403;28;20675;-73
2022/01/30 07:24:54;;;;;;;0.30;0.30;;;;;;;17.07;57.54;99257.97;3148607;28;20052;-73
2022/01/30 07:26:26;;;;;;;0.85;0.60;;;;;;;17.08;57.58;99263.19;3143131;28;20072;-74
2022/01/30 07:27:58;;;;;;;0.70;0.52;;;;;;;17.10;57.68;99262.97;3148589;28;20047;-73
2022/01/30 07:29:29;;;;;;;0.30;0.30;;;;;;;17.10;57.57;99261.13;3146529;28;20504;-74
2022/01/30 07:31:00;;;;;;;0.30;0.30;;;;;;;17.11;57.58;99260.13;3146369;28;20056;-74
2022/01/30 07:32:32;;;;;;;0.43;0.40;;;;;;;17.12;57.66;99261.78;3147714;28;20059;-74
2022/01/30 07:34:05;;;;;;;0.80;0.50;;;;;;;17.11;57.65;99246.75;3148837;28;20044;-73
2022/01/30 07:35:41;;;;;;;0.40;0.30;;;;;;;17.12;57.80;99256.44;3150855;28;20036;-74
2022/01/30 07:37:13;;;;;;;0.43;0.40;;;;;;;17.14;57.69;99258.94;3143676;28;20039;-74
2022/01/30 07:38:45;;;;;;;0.70;0.38;;;;;;;17.15;57.68;99247.19;3149964;28;20051;-73
2022/01/30 07:40:17;;;;;;;0.32;0.22;;;;;;;17.15;57.72;99248.03;3149961;28;20055;-74
2022/01/30 07:41:49;;;;;;;1.20;0.35;;;;;;;17.14;57.70;99257.09;3151341;28;20048;-74
2022/01/30 07:43:21;;;;;;;1.05;0.68;;;;;;;17.14;57.54;99257.09;3145537;28;20076;-73
2022/01/30 07:44:53;;;;;;;0.30;0.30;;;;;;;17.14;57.64;99262.47;3148173;28;20072;-73
2022/01/30 07:46:25;;;;;;;0.63;0.40;;;;;;;17.13;57.68;99271.53;3146149;28;20123;-74
2022/01/30 07:47:57;;;;;;;0.50;0.43;;;;;;;17.15;57.57;99264.13;3150308;28;20044;-73
2022/01/30 07:49:30;;;;;;;0.68;0.65;;;;;;;17.16;57.67;99268.47;3147942;28;20051;-74
2022/01/30 07:51:02;;;;;;;0.80;0.60;;;;;;;17.16;57.54;99263.13;3142494;28;20052;-73
2022/01/30 07:52:34;;;;;;;0.65;0.60;;;;;;;17.15;57.80;99264.13;3148853;28;20073;-74
2022/01/30 07:54:06;;;;;;;0.75;0.70;;;;;;;17.16;57.58;99260.44;3149416;28;20134;-73
2022/01/30 07:55:38;;;;;;;0.38;0.35;;;;;;;17.16;57.66;99259.59;3147615;28;20090;-74